Time;durP1;ratioP1;P1;durP2;ratioP2;P2;SDS_P1;SDS_P2;PMS_P1;PMS_P2;Temp;Humidity;BMP_temperature;BMP_pressure;BME280_temperature;BME280_humidity;BME280_pressure;Samples;Min_cycle;Max_cycle;Signal;HPM_P1;HPM_P2
2023/03/09 00:01:56;;;;;;;;;;;;;;;14.61;64.31;100120.72;7399432;19;1089;-42
2023/03/09 00:04:26;;;;;;;;;;;;;;;14.68;64.12;100121.06;7398960;19;995;-41
2023/03/09 00:06:54;;;;;;;;;;;;;;;14.73;64.04;100120.72;7398530;19;1851;-42
2023/03/09 00:09:30;;;;;;;;;;;;;;;14.70;63.69;100112.00;7399485;19;1124;-42
2023/03/09 00:12:00;;;;;;;;;;;;;;;14.70;63.83;100116.47;7399493;19;1019;-42
2023/03/09 00:14:28;;;;;;;;;;;;;;;14.66;63.88;100109.69;7398594;19;1109;-42
2023/03/09 00:16:57;;;;;;;;;;;;;;;14.62;64.15;100109.13;7398485;19;1031;-42
2023/03/09 00:19:30;;;;;;;;;;;;;;;14.59;64.43;100109.34;7398381;19;1865;-42
2023/03/09 00:22:00;;;;;;;;;;;;;;;14.61;63.97;100104.75;7399084;19;1034;-41
2023/03/09 00:24:31;;;;;;;;;;;;;;;14.58;64.12;100089.03;7398314;19;997;-42
2023/03/09 00:27:01;;;;;;;;;;;;;;;14.66;63.98;100091.94;7397113;19;1843;-42
2023/03/09 00:29:30;;;;;;;;;;;;;;;14.73;63.93;100072.81;7398175;19;1070;-42
2023/03/09 00:31:59;;;;;;;;;;;;;;;14.76;63.94;100089.34;7398870;19;1054;-41
2023/03/09 00:34:27;;;;;;;;;;;;;;;14.72;63.52;100077.25;7398489;19;1023;-42
2023/03/09 00:36:55;;;;;;;;;;;;;;;14.65;63.80;100063.63;7398578;19;1122;-42
2023/03/09 00:39:25;;;;;;;;;;;;;;;14.62;64.13;100068.34;7398689;19;1054;-41
2023/03/09 00:41:56;;;;;;;;;;;;;;;14.58;64.33;100070.41;7397639;19;1047;-42
2023/03/09 00:44:27;;;;;;;;;;;;;;;14.59;64.19;100066.78;7397644;19;1036;-42
2023/03/09 00:46:57;;;;;;;;;;;;;;;14.57;63.97;100058.06;7397440;19;1869;-42
2023/03/09 00:49:26;;;;;;;;;;;;;;;14.58;64.25;100061.56;7397492;19;1118;-41
2023/03/09 00:51:54;;;;;;;;;;;;;;;14.64;64.19;100077.91;7397355;19;1127;-42
2023/03/09 00:54:23;;;;;;;;;;;;;;;14.70;64.02;100073.88;7397334;19;1098;-41
2023/03/09 00:56:52;;;;;;;;;;;;;;;14.71;64.03;100070.25;7397221;19;1067;-41
2023/03/09 00:59:23;;;;;;;;;;;;;;;14.68;63.65;100082.00;7404136;19;1060;-42
2023/03/09 01:01:51;;;;;;;;;;;;;;;14.67;63.93;100079.47;7412024;19;1033;-42
2023/03/09 01:04:19;;;;;;;;;;;;;;;14.61;63.77;100064.00;7411371;19;1987;-42
2023/03/09 01:06:50;;;;;;;;;;;;;;;14.61;64.15;100064.84;7410626;19;1841;-42
2023/03/09 01:09:18;;;;;;;;;;;;;;;14.57;64.39;100082.03;7411223;19;1030;-42
2023/03/09 01:11:46;;;;;;;;;;;;;;;14.58;64.13;100077.53;7411251;19;1130;-42
2023/03/09 01:14:15;;;;;;;;;;;;;;;14.56;63.89;100071.47;7411164;19;1064;-42
2023/03/09 01:16:45;;;;;;;;;;;;;;;14.53;64.25;100053.94;7411739;19;1019;-41
2023/03/09 01:19:15;;;;;;;;;;;;;;;14.65;64.09;100055.63;7411698;19;967;-42
2023/03/09 01:21:43;;;;;;;;;;;;;;;14.70;63.64;100060.56;7410842;19;1035;-42
2023/03/09 01:24:12;;;;;;;;;;;;;;;14.67;64.08;100069.66;7410905;19;1102;-42
2023/03/09 01:26:41;;;;;;;;;;;;;;;14.62;63.70;100055.03;7410038;19;1866;-42
2023/03/09 01:29:10;;;;;;;;;;;;;;;14.62;64.18;100081.63;7410803;19;1058;-42
2023/03/09 01:31:39;;;;;;;;;;;;;;;14.55;63.93;100065.31;7411710;19;950;-42
2023/03/09 01:34:16;;;;;;;;;;;;;;;14.53;64.18;100077.88;7411248;19;1022;-42
2023/03/09 01:36:46;;;;;;;;;;;;;;;14.53;64.23;100056.59;7410462;19;1027;-42
2023/03/09 01:39:14;;;;;;;;;;;;;;;14.54;64.26;100068.91;7410466;19;1118;-42
2023/03/09 01:41:42;;;;;;;;;;;;;;;14.53;64.09;100085.88;7411217;19;1077;-42
2023/03/09 01:44:13;;;;;;;;;;;;;;;14.58;63.76;100061.56;7410374;19;1125;-41
2023/03/09 01:46:47;;;;;;;;;;;;;;;14.63;63.68;100060.25;7410355;19;1853;-42
2023/03/09 01:49:36;;;;;;;;;;;;;;;14.61;64.05;100069.31;7411082;19;1026;-41
2023/03/09 01:52:11;;;;;;;;;;;;;;;14.62;63.78;100076.31;7409941;19;1463;-42
2023/03/09 01:54:43;;;;;;;;;;;;;;;14.57;64.23;100071.38;7410141;19;1121;-42
2023/03/09 01:57:14;;;;;;;;;;;;;;;14.53;63.93;100068.09;7409947;19;1118;-41
2023/03/09 01:59:44;;;;;;;;;;;;;;;14.53;64.20;100059.25;7410861;19;1137;-42
2023/03/09 02:02:15;;;;;;;;;;;;;;;14.52;64.36;100070.84;7410696;19;1046;-41
2023/03/09 02:04:45;;;;;;;;;;;;;;;14.50;64.26;100057.72;7409336;19;1152;-42
2023/03/09 02:07:18;;;;;;;;;;;;;;;14.57;64.03;100057.25;7408610;19;1847;-42
2023/03/09 02:09:50;;;;;;;;;;;;;;;14.65;63.84;100049.47;7409264;19;1034;-42
2023/03/09 02:12:20;;;;;;;;;;;;;;;14.67;63.93;100047.53;7400628;19;1129;-41
2023/03/09 02:14:52;;;;;;;;;;;;;;;14.63;63.63;100028.31;7403353;19;1014;-42
2023/03/09 02:17:24;;;;;;;;;;;;;;;14.61;64.02;100038.22;7403146;19;1029;-42
2023/03/09 02:20:07;;;;;;;;;;;;;;;14.60;63.73;100046.34;7402415;19;1145;-42
2023/03/09 02:22:39;;;;;;;;;;;;;;;14.53;64.07;100046.78;7402713;19;963;-42
2023/03/09 02:25:13;;;;;;;;;;;;;;;14.52;64.24;100050.44;7402262;19;1054;-41
2023/03/09 02:27:45;;;;;;;;;;;;;;;14.50;63.92;100040.88;7401244;19;1852;-42
2023/03/09 02:30:14;;;;;;;;;;;;;;;14.51;64.21;100050.56;7402923;19;976;-42
2023/03/09 02:32:44;;;;;;;;;;;;;;;14.51;64.21;100066.53;7402824;19;995;-42
2023/03/09 02:35:14;;;;;;;;;;;;;;;14.57;64.28;100050.09;7401874;19;1014;-42
2023/03/09 02:37:43;;;;;;;;;;;;;;;14.62;63.85;100058.56;7402630;19;1042;-42
2023/03/09 02:40:15;;;;;;;;;;;;;;;14.63;63.84;100051.41;7402604;19;1110;-42
2023/03/09 02:42:48;;;;;;;;;;;;;;;14.59;64.14;100064.13;7401697;19;1134;-41
2023/03/09 02:45:21;;;;;;;;;;;;;;;14.55;64.15;100044.03;7402287;19;1029;-42
2023/03/09 02:47:49;;;;;;;;;;;;;;;14.53;64.09;100051.28;7399993;19;1861;-42
2023/03/09 02:50:18;;;;;;;;;;;;;;;14.50;64.35;100031.09;7401485;19;1034;-42
2023/03/09 02:52:47;;;;;;;;;;;;;;;14.48;64.15;100048.13;7402157;19;1034;-42
2023/03/09 02:55:16;;;;;;;;;;;;;;;14.44;64.19;100031.59;7401296;19;1046;-42
2023/03/09 02:57:47;;;;;;;;;;;;;;;14.46;64.01;100031.44;7401104;19;1039;-42
2023/03/09 03:00:21;;;;;;;;;;;;;;;14.54;64.04;100034.34;7401747;19;966;-42
2023/03/09 03:02:49;;;;;;;;;;;;;;;14.59;64.00;100028.69;7400963;19;1970;-41
2023/03/09 03:05:17;;;;;;;;;;;;;;;14.61;64.01;100026.75;7399943;19;1304;-42
2023/03/09 03:07:47;;;;;;;;;;;;;;;14.58;63.78;100017.19;7399467;19;1844;-42
2023/03/09 03:10:15;;;;;;;;;;;;;;;14.52;64.08;100018.53;7400824;19;1238;-42
2023/03/09 03:12:47;;;;;;;;;;;;;;;14.52;64.27;100033.63;7400729;19;927;-42
2023/03/09 03:15:16;;;;;;;;;;;;;;;14.57;63.91;100036.78;7401048;19;1033;-42
2023/03/09 03:17:46;;;;;;;;;;;;;;;14.50;64.31;100019.59;7401303;19;1031;-41
2023/03/09 03:20:15;;;;;;;;;;;;;;;14.51;63.83;100037.25;7400392;19;1049;-42
2023/03/09 03:22:43;;;;;;;;;;;;;;;14.48;63.93;100024.19;7400026;19;955;-42
2023/03/09 03:25:12;;;;;;;;;;;;;;;14.50;64.10;100030.22;7401149;19;1027;-41
2023/03/09 03:27:40;;;;;;;;;;;;;;;14.56;64.01;100029.75;7399584;19;1849;-42
2023/03/09 03:30:12;;;;;;;;;;;;;;;14.66;63.66;100052.03;7400095;19;962;-42
2023/03/09 03:32:42;;;;;;;;;;;;;;;14.66;63.82;100037.84;7400896;19;959;-42
2023/03/09 03:35:11;;;;;;;;;;;;;;;14.62;64.14;100045.25;7400374;19;1009;-42
2023/03/09 03:37:40;;;;;;;;;;;;;;;14.56;64.07;100028.91;7400739;19;1101;-42
2023/03/09 03:40:09;;;;;;;;;;;;;;;14.55;64.26;100046.69;7399908;19;1054;-42
2023/03/09 03:42:37;;;;;;;;;;;;;;;14.55;64.09;100048.50;7399805;19;1098;-42
2023/03/09 03:45:10;;;;;;;;;;;;;;;14.51;64.04;100031.94;7399506;19;1110;-42
2023/03/09 03:47:40;;;;;;;;;;;;;;;14.51;64.48;100037.25;7399483;19;1843;-41
2023/03/09 03:50:09;;;;;;;;;;;;;;;14.48;64.31;100032.16;7399948;19;1026;-42
2023/03/09 03:52:38;;;;;;;;;;;;;;;14.47;64.48;100041.97;7399837;19;966;-42
2023/03/09 03:55:08;;;;;;;;;;;;;;;14.57;64.04;100031.47;7399261;19;1106;-42
2023/03/09 03:57:37;;;;;;;;;;;;;;;14.59;63.95;100016.22;7400107;19;1208;-42
2023/03/09 04:00:09;;;;;;;;;;;;;;;14.64;63.61;100031.81;7399084;19;1051;-42
2023/03/09 04:02:37;;;;;;;;;;;;;;;14.64;64.11;100032.69;7398961;19;994;-42
2023/03/09 04:05:09;;;;;;;;;;;;;;;14.58;63.74;100043.78;7398266;19;1255;-42
2023/03/09 04:07:37;;;;;;;;;;;;;;;14.52;64.01;100026.50;7398989;19;1856;-42
2023/03/09 04:10:06;;;;;;;;;;;;;;;14.54;64.15;100042.31;7398721;19;1051;-42
2023/03/09 04:12:34;;;;;;;;;;;;;;;14.48;64.32;100034.84;7398705;19;1256;-41
2023/03/09 04:15:05;;;;;;;;;;;;;;;14.43;64.46;100021.91;7398650;19;1981;-42
2023/03/09 04:17:33;;;;;;;;;;;;;;;14.42;64.57;100032.66;7399131;19;1042;-42
2023/03/09 04:20:01;;;;;;;;;;;;;;;14.52;64.06;100029.16;7399318;19;1018;-42
2023/03/09 04:22:33;;;;;;;;;;;;;;;14.62;63.91;100017.78;7399003;19;1014;-42
2023/03/09 04:25:02;;;;;;;;;;;;;;;14.60;63.89;100025.88;7399228;19;1153;-42
2023/03/09 04:27:30;;;;;;;;;;;;;;;14.60;63.87;100015.25;7397687;19;1857;-42
2023/03/09 04:29:58;;;;;;;;;;;;;;;14.61;64.04;100022.25;7398114;19;1102;-41
2023/03/09 04:32:26;;;;;;;;;;;;;;;14.62;64.02;100023.97;7398419;19;1079;-42
2023/03/09 04:34:55;;;;;;;;;;;;;;;14.59;63.81;100018.88;7396594;19;1019;-42
2023/03/09 04:37:23;;;;;;;;;;;;;;;14.50;63.99;100031.09;7397913;19;1042;-41
2023/03/09 04:39:54;;;;;;;;;;;;;;;14.49;64.23;100024.06;7397873;19;1249;-42
2023/03/09 04:42:22;;;;;;;;;;;;;;;14.45;64.10;100027.13;7398667;19;967;-42
2023/03/09 04:44:50;;;;;;;;;;;;;;;14.50;64.19;100047.06;7398212;19;1065;-42
2023/03/09 04:47:19;;;;;;;;;;;;;;;14.52;63.95;100025.63;7397291;19;1869;-42
2023/03/09 04:49:48;;;;;;;;;;;;;;;14.60;64.13;100038.34;7397649;19;1055;-42
2023/03/09 04:52:16;;;;;;;;;;;;;;;14.56;64.17;100008.47;7397552;19;1122;-42
2023/03/09 04:54:45;;;;;;;;;;;;;;;14.57;64.16;100036.78;7397378;19;1104;-42
2023/03/09 04:57:17;;;;;;;;;;;;;;;14.54;64.17;100026.34;7399593;19;1814;-42
2023/03/09 04:59:45;;;;;;;;;;;;;;;14.48;63.94;100026.84;7398050;19;1016;-42
2023/03/09 05:02:14;;;;;;;;;;;;;;;14.45;64.02;100037.75;7397744;19;1010;-42
2023/03/09 05:04:42;;;;;;;;;;;;;;;14.45;64.19;100048.41;7395708;19;1207;-42
2023/03/09 05:07:10;;;;;;;;;;;;;;;14.43;64.44;100047.69;7397750;19;1857;-41
2023/03/09 05:09:39;;;;;;;;;;;;;;;14.52;64.32;100049.56;7396878;19;1055;-42
2023/03/09 05:12:07;;;;;;;;;;;;;;;14.62;63.68;100026.63;7396911;19;1067;-42
2023/03/09 05:14:39;;;;;;;;;;;;;;;14.64;63.71;100042.44;7397647;19;1046;-42
2023/03/09 05:17:09;;;;;;;;;;;;;;;14.58;63.98;100041.13;7397755;19;1050;-42
2023/03/09 05:19:37;;;;;;;;;;;;;;;14.56;64.05;100021.78;7396909;19;1274;-42
2023/03/09 05:22:09;;;;;;;;;;;;;;;14.52;64.03;100033.63;7396727;19;1051;-42
2023/03/09 05:24:38;;;;;;;;;;;;;;;14.49;64.39;100032.06;7396669;19;1129;-42
2023/03/09 05:27:06;;;;;;;;;;;;;;;14.47;64.20;100028.69;7396556;19;1876;-42
2023/03/09 05:29:34;;;;;;;;;;;;;;;14.45;64.20;100027.13;7394616;19;1835;-42
2023/03/09 05:32:07;;;;;;;;;;;;;;;14.52;64.28;100038.94;7396496;19;1007;-41
2023/03/09 05:34:37;;;;;;;;;;;;;;;14.55;63.95;100006.78;7396339;19;1105;-42
2023/03/09 05:37:06;;;;;;;;;;;;;;;14.69;63.45;100018.97;7396344;19;990;-41
2023/03/09 05:39:36;;;;;;;;;;;;;;;14.71;63.44;100028.53;7397153;19;967;-42
2023/03/09 05:42:06;;;;;;;;;;;;;;;14.69;63.57;100021.66;7397020;19;967;-42
2023/03/09 05:44:34;;;;;;;;;;;;;;;14.67;63.62;100023.59;7396183;19;1039;-42
2023/03/09 05:47:02;;;;;;;;;;;;;;;14.62;63.79;100017.78;7404160;19;1197;-42
2023/03/09 05:49:33;;;;;;;;;;;;;;;14.56;63.86;100024.44;7400948;19;1855;-42
2023/03/09 05:52:02;;;;;;;;;;;;;;;14.58;64.08;100030.47;7404365;19;955;-42
2023/03/09 05:54:31;;;;;;;;;;;;;;;14.55;63.66;100033.38;7403420;19;1352;-41
2023/03/09 05:56:59;;;;;;;;;;;;;;;14.58;63.66;100049.09;7403215;19;1134;-41
2023/03/09 05:59:27;;;;;;;;;;;;;;;14.61;64.03;100048.03;7403125;19;1031;-41
2023/03/09 06:01:56;;;;;;;;;;;;;;;14.59;63.58;100042.84;7403047;19;1047;-42
2023/03/09 06:04:24;;;;;;;;;;;;;;;14.66;63.45;100040.50;7403013;19;1048;-42
2023/03/09 06:06:55;;;;;;;;;;;;;;;14.80;63.43;100032.25;7400977;19;1128;-42
2023/03/09 06:09:25;;;;;;;;;;;;;;;14.87;62.79;100036.09;7401149;19;1857;-42
2023/03/09 06:11:53;;;;;;;;;;;;;;;14.95;62.98;100043.44;7403288;19;1031;-42
2023/03/09 06:14:22;;;;;;;;;;;;;;;14.86;62.83;100042.41;7402865;19;1122;-42
2023/03/09 06:16:51;;;;;;;;;;;;;;;14.82;62.93;100048.09;7402567;19;1063;-42
2023/03/09 06:19:19;;;;;;;;;;;;;;;14.80;63.01;100047.38;7402446;19;1039;-42
2023/03/09 06:21:48;;;;;;;;;;;;;;;14.77;63.48;100037.81;7402275;19;1122;-42
2023/03/09 06:24:20;;;;;;;;;;;;;;;14.81;63.08;100047.25;7402273;19;1111;-42
2023/03/09 06:26:49;;;;;;;;;;;;;;;14.78;63.03;100026.22;7402285;19;1035;-42
2023/03/09 06:29:17;;;;;;;;;;;;;;;14.85;62.73;100047.84;7400418;19;1852;-42
2023/03/09 06:31:49;;;;;;;;;;;;;;;14.82;63.15;100045.41;7402419;19;1030;-42
2023/03/09 06:34:18;;;;;;;;;;;;;;;14.89;62.88;100047.47;7401993;19;1126;-42
2023/03/09 06:36:46;;;;;;;;;;;;;;;14.88;62.86;100039.59;7401784;19;1031;-42
2023/03/09 06:39:15;;;;;;;;;;;;;;;14.92;62.79;100041.03;7402360;19;971;-42
2023/03/09 06:41:47;;;;;;;;;;;;;;;14.93;62.74;100036.56;7401640;19;1145;-42
2023/03/09 06:44:15;;;;;;;;;;;;;;;14.97;62.89;100032.69;7402551;19;970;-42
2023/03/09 06:46:45;;;;;;;;;;;;;;;14.98;62.33;100032.56;7401953;19;1019;-42
2023/03/09 06:49:13;;;;;;;;;;;;;;;15.01;62.88;100028.78;7399958;19;1856;-42
2023/03/09 06:51:41;;;;;;;;;;;;;;;15.01;62.86;100026.13;7401434;19;1039;-42
2023/03/09 06:54:16;;;;;;;;;;;;;;;15.04;62.40;100023.19;7401314;19;1114;-42
2023/03/09 06:56:47;;;;;;;;;;;;;;;15.09;62.49;100027.16;7400629;19;951;-42
2023/03/09 06:59:15;;;;;;;;;;;;;;;15.02;62.41;100028.66;7401765;19;1007;-42
2023/03/09 07:01:43;;;;;;;;;;;;;;;14.99;62.46;100028.91;7401199;19;1118;-42
2023/03/09 07:04:14;;;;;;;;;;;;;;;14.99;62.94;100034.22;7400996;19;1031;-42
2023/03/09 07:06:42;;;;;;;;;;;;;;;14.98;62.69;100029.91;7400064;19;1105;-42
2023/03/09 07:09:10;;;;;;;;;;;;;;;14.99;62.96;100028.91;7399483;19;1842;-42
2023/03/09 07:11:40;;;;;;;;;;;;;;;14.97;63.11;100027.34;7401210;19;1041;-42
2023/03/09 07:14:11;;;;;;;;;;;;;;;14.96;62.73;100021.19;7400690;19;1055;-42
2023/03/09 07:16:39;;;;;;;;;;;;;;;14.93;62.75;100024.09;7401406;19;1051;-42
2023/03/09 07:19:07;;;;;;;;;;;;;;;14.93;62.84;100024.09;7400451;19;1043;-42
2023/03/09 07:21:35;;;;;;;;;;;;;;;14.91;63.03;100018.06;7400295;19;1114;-42
2023/03/09 07:24:04;;;;;;;;;;;;;;;14.92;62.84;100025.06;7400422;19;1122;-42
2023/03/09 07:26:32;;;;;;;;;;;;;;;14.91;63.12;100015.41;7400267;19;1067;-41
2023/03/09 07:29:02;;;;;;;;;;;;;;;14.91;63.29;100008.25;7399270;19;1828;-42
2023/03/09 07:31:35;;;;;;;;;;;;;;;14.94;62.87;100035.59;7400948;19;968;-42
2023/03/09 07:34:03;;;;;;;;;;;;;;;14.91;62.83;100018.91;7400780;19;1126;-42
2023/03/09 07:36:32;;;;;;;;;;;;;;;14.90;63.04;100021.69;7400649;19;1027;-42
2023/03/09 07:39:00;;;;;;;;;;;;;;;14.91;62.91;100023.38;7399945;19;1995;-42
2023/03/09 07:41:29;;;;;;;;;;;;;;;14.91;62.95;100010.06;7399697;19;1126;-42
2023/03/09 07:44:00;;;;;;;;;;;;;;;14.91;63.17;100012.72;7399652;19;1257;-42
2023/03/09 07:46:28;;;;;;;;;;;;;;;14.93;63.05;100021.44;7399492;19;1268;-43
2023/03/09 07:48:59;;;;;;;;;;;;;;;14.96;63.34;100023.84;7398661;19;1846;-42
2023/03/09 07:51:28;;;;;;;;;;;;;;;14.95;63.08;100011.50;7400247;19;1015;-42
2023/03/09 07:53:57;;;;;;;;;;;;;;;14.96;63.13;100004.34;7399358;19;1071;-42
2023/03/09 07:56:34;;;;;;;;;;;;;;;14.94;63.02;99995.66;7399220;19;1063;-42
2023/03/09 07:59:03;;;;;;;;;;;;;;;14.94;63.04;100023.13;7399162;19;1973;-42
2023/03/09 08:01:32;;;;;;;;;;;;;;;14.91;62.97;99986.13;7399862;19;1139;-42
2023/03/09 08:04:04;;;;;;;;;;;;;;;14.96;62.92;100007.88;7399009;19;1082;-42
2023/03/09 08:06:33;;;;;;;;;;;;;;;14.91;63.42;99996.75;7398579;19;1167;-42
2023/03/09 08:09:02;;;;;;;;;;;;;;;14.94;63.45;100000.97;7395270;19;1850;-42
2023/03/09 08:11:30;;;;;;;;;;;;;;;14.95;63.06;100000.84;7399258;19;991;-42
2023/03/09 08:13:58;;;;;;;;;;;;;;;14.93;63.04;100000.13;7398695;19;1261;-42
2023/03/09 08:16:26;;;;;;;;;;;;;;;14.91;63.25;99996.75;7398603;19;1043;-42
2023/03/09 08:18:55;;;;;;;;;;;;;;;14.91;63.28;99986.13;7398508;19;1047;-42
2023/03/09 08:21:26;;;;;;;;;;;;;;;14.95;63.29;99982.22;7398442;19;1134;-42
2023/03/09 08:23:56;;;;;;;;;;;;;;;14.97;62.82;99990.91;7398809;19;1042;-42
2023/03/09 08:26:25;;;;;;;;;;;;;;;14.99;63.29;99986.31;7398293;19;1937;-42
2023/03/09 08:28:53;;;;;;;;;;;;;;;14.97;62.91;99985.59;7397656;19;1836;-42
2023/03/09 08:31:23;;;;;;;;;;;;;;;15.00;62.90;99968.50;7398162;19;1047;-42
2023/03/09 08:33:51;;;;;;;;;;;;;;;15.00;63.09;99968.50;7398923;19;954;-43
2023/03/09 08:36:20;;;;;;;;;;;;;;;14.99;62.74;99969.50;7398003;19;1134;-42
2023/03/09 08:38:51;;;;;;;;;;;;;;;15.05;63.11;99972.47;7398812;19;1194;-43
2023/03/09 08:41:21;;;;;;;;;;;;;;;15.03;62.73;99979.75;7398496;19;959;-42
2023/03/09 08:43:50;;;;;;;;;;;;;;;15.04;62.75;99978.78;7398648;19;1022;-42
2023/03/09 08:46:19;;;;;;;;;;;;;;;15.01;63.17;99971.06;7397783;19;1142;-43
2023/03/09 08:48:49;;;;;;;;;;;;;;;15.01;63.12;99972.88;7398188;19;1849;-42
2023/03/09 08:51:18;;;;;;;;;;;;;;;15.01;62.85;99959.56;7398441;19;1006;-42
2023/03/09 08:53:46;;;;;;;;;;;;;;;15.00;62.87;99977.38;7397515;19;1051;-42
2023/03/09 08:56:18;;;;;;;;;;;;;;;15.02;62.85;99969.22;7397456;19;1130;-42
2023/03/09 08:58:47;;;;;;;;;;;;;;;14.95;63.15;99966.25;7398209;19;1034;-43
2023/03/09 09:01:17;;;;;;;;;;;;;;;14.95;63.14;99960.91;7397901;19;1030;-42
2023/03/09 09:03:46;;;;;;;;;;;;;;;14.98;63.35;99971.31;7398295;19;990;-43
2023/03/09 09:06:16;;;;;;;;;;;;;;;15.00;62.78;99966.72;7396008;19;1176;-42
2023/03/09 09:08:44;;;;;;;;;;;;;;;15.03;63.13;99965.59;7397654;19;1840;-42
2023/03/09 09:11:15;;;;;;;;;;;;;;;15.02;62.86;99966.56;7397545;19;1047;-42
2023/03/09 09:13:49;;;;;;;;;;;;;;;14.99;63.04;99962.34;7397853;19;1110;-42
2023/03/09 09:16:18;;;;;;;;;;;;;;;15.00;63.01;99969.38;7396907;19;999;-43
2023/03/09 09:18:46;;;;;;;;;;;;;;;15.01;63.11;99957.75;7397010;19;1133;-42
2023/03/09 09:21:17;;;;;;;;;;;;;;;15.04;62.70;99965.47;7402964;19;973;-42
2023/03/09 09:23:46;;;;;;;;;;;;;;;15.01;63.23;99949.75;7404754;19;1022;-42
2023/03/09 09:26:14;;;;;;;;;;;;;;;15.00;63.19;99957.88;7404234;19;1055;-42
2023/03/09 09:28:43;;;;;;;;;;;;;;;15.01;63.03;99960.41;7403901;19;1854;-43
2023/03/09 09:31:16;;;;;;;;;;;;;;;15.01;62.97;99964.91;7404834;19;1033;-42
2023/03/09 09:33:44;;;;;;;;;;;;;;;15.01;62.87;99960.41;7404593;19;1010;-42
2023/03/09 09:36:15;;;;;;;;;;;;;;;15.01;62.80;99965.72;7403826;19;1055;-42
2023/03/09 09:38:44;;;;;;;;;;;;;;;15.04;62.96;99969.94;7403918;19;978;-42
2023/03/09 09:41:16;;;;;;;;;;;;;;;14.98;62.84;99968.66;7403809;19;1054;-42
2023/03/09 09:43:45;;;;;;;;;;;;;;;14.98;63.03;99973.13;7403732;19;1121;-43
2023/03/09 09:46:18;;;;;;;;;;;;;;;15.00;62.81;99972.03;7404023;19;1013;-43
2023/03/09 09:48:48;;;;;;;;;;;;;;;15.03;63.17;99978.91;7404261;19;1843;-42
2023/03/09 09:51:22;;;;;;;;;;;;;;;14.96;63.11;99954.63;7404384;19;1146;-42
2023/03/09 09:53:57;;;;;;;;;;;;;;;14.96;63.11;99959.97;7404009;19;1057;-42
2023/03/09 09:56:29;;;;;;;;;;;;;;;14.98;63.03;99949.16;7404171;19;1085;-42
2023/03/09 09:59:00;;;;;;;;;;;;;;;15.00;63.15;99961.41;7403856;19;963;-43
2023/03/09 10:01:39;;;;;;;;;;;;;;;14.97;63.06;99932.34;7403961;19;958;-42
2023/03/09 10:04:11;;;;;;;;;;;;;;;14.99;63.08;99950.88;7403572;19;1014;-43
2023/03/09 10:06:41;;;;;;;;;;;;;;;14.97;63.12;99935.00;7401079;19;1167;-42
2023/03/09 10:09:14;;;;;;;;;;;;;;;14.99;63.20;99937.56;7402967;19;1845;-42
2023/03/09 10:11:45;;;;;;;;;;;;;;;15.02;62.92;99930.16;7402665;19;1109;-42
2023/03/09 10:14:19;;;;;;;;;;;;;;;15.05;63.07;99913.91;7403552;19;962;-42
2023/03/09 10:16:56;;;;;;;;;;;;;;;15.06;62.85;99920.06;7403490;19;1018;-42
2023/03/09 10:19:30;;;;;;;;;;;;;;;15.06;63.25;99920.06;7403419;19;1193;-42
2023/03/09 10:22:00;;;;;;;;;;;;;;;15.05;62.83;99927.22;7403195;19;975;-43
2023/03/09 10:24:31;;;;;;;;;;;;;;;15.06;63.13;99936.91;7403243;19;1013;-42
2023/03/09 10:27:02;;;;;;;;;;;;;;;15.06;63.25;99920.06;7402308;19;1054;-42
2023/03/09 10:29:42;;;;;;;;;;;;;;;15.05;63.09;99897.94;7401554;19;1856;-42
2023/03/09 10:32:19;;;;;;;;;;;;;;;15.05;63.14;99918.41;7399752;19;1058;-42
2023/03/09 10:34:55;;;;;;;;;;;;;;;15.01;63.31;99915.13;7401973;19;1063;-42
2023/03/09 10:37:25;;;;;;;;;;;;;;;14.96;63.38;99887.22;7401972;19;1982;-42
2023/03/09 10:39:55;;;;;;;;;;;;;;;15.01;62.95;99877.88;7402379;19;1014;-43
2023/03/09 10:42:25;;;;;;;;;;;;;;;15.01;63.38;99890.34;7401712;19;1343;-43
2023/03/09 10:45:03;;;;;;;;;;;;;;;15.02;63.04;99894.69;7402516;19;1043;-43
2023/03/09 10:47:46;;;;;;;;;;;;;;;14.99;63.36;99871.84;7402047;19;1014;-43
2023/03/09 10:50:18;;;;;;;;;;;;;;;15.00;63.28;99870.88;7399831;19;2249;-42
2023/03/09 10:52:46;;;;;;;;;;;;;;;14.99;63.25;99871.84;7402229;19;1053;-43
2023/03/09 10:55:32;;;;;;;;;;;;;;;14.98;63.29;99859.50;7401340;19;1114;-42
2023/03/09 10:58:03;;;;;;;;;;;;;;;15.00;62.92;99852.22;7401739;19;1029;-42
2023/03/09 11:00:33;;;;;;;;;;;;;;;15.01;63.17;99851.25;7401856;19;1018;-42
2023/03/09 11:03:05;;;;;;;;;;;;;;;15.01;63.26;99853.91;7402024;19;972;-43
2023/03/09 11:05:35;;;;;;;;;;;;;;;14.97;63.20;99841.84;7400309;19;1292;-42
2023/03/09 11:08:07;;;;;;;;;;;;;;;14.99;63.29;99833.72;7400918;19;1047;-42
2023/03/09 11:10:37;;;;;;;;;;;;;;;15.00;63.48;99825.59;7399414;19;1847;-42
2023/03/09 11:13:06;;;;;;;;;;;;;;;14.97;63.29;99803.72;7400776;19;1099;-42
2023/03/09 11:15:37;;;;;;;;;;;;;;;14.96;63.43;99802.91;7400736;19;1042;-42
2023/03/09 11:18:25;;;;;;;;;;;;;;;14.98;63.08;99808.94;7400569;19;1008;-42
2023/03/09 11:20:57;;;;;;;;;;;;;;;14.96;63.47;99797.56;7401406;19;1014;-42
2023/03/09 11:23:29;;;;;;;;;;;;;;;14.99;63.20;99807.94;7400403;19;988;-42
2023/03/09 11:26:04;;;;;;;;;;;;;;;14.99;63.28;99804.44;7400913;19;1030;-42
2023/03/09 11:28:40;;;;;;;;;;;;;;;15.03;63.44;99813.84;7401127;19;939;-41
2023/03/09 11:31:14;;;;;;;;;;;;;;;15.02;63.39;99791.72;7399511;19;1845;-42
2023/03/09 11:33:44;;;;;;;;;;;;;;;15.04;63.22;99791.56;7400304;19;1141;-42
2023/03/09 11:36:20;;;;;;;;;;;;;;;15.02;62.99;99791.72;7400097;19;1899;-41
2023/03/09 11:38:49;;;;;;;;;;;;;;;15.01;63.22;99790.00;7399888;19;1105;-42
2023/03/09 11:41:22;;;;;;;;;;;;;;;15.02;63.45;99788.19;7399869;19;1109;-42
2023/03/09 11:43:53;;;;;;;;;;;;;;;15.03;63.25;99793.38;7399976;19;1026;-42
2023/03/09 11:46:22;;;;;;;;;;;;;;;15.02;63.22;99780.19;7399559;19;1932;-42
2023/03/09 11:48:53;;;;;;;;;;;;;;;15.05;63.20;99780.78;7399487;19;1130;-42
2023/03/09 11:51:27;;;;;;;;;;;;;;;15.00;63.41;99768.84;7397834;19;1845;-42
2023/03/09 11:54:02;;;;;;;;;;;;;;;15.07;63.35;99789.47;7400283;19;951;-42
2023/03/09 11:56:32;;;;;;;;;;;;;;;15.01;63.22;99776.69;7399358;19;1275;-42
2023/03/09 11:59:07;;;;;;;;;;;;;;;15.00;63.34;99777.69;7399680;19;1058;-42
2023/03/09 12:01:39;;;;;;;;;;;;;;;15.03;63.32;99777.41;7399146;19;1126;-42
2023/03/09 12:04:10;;;;;;;;;;;;;;;14.98;63.29;99784.97;7399985;19;1014;-42
2023/03/09 12:06:49;;;;;;;;;;;;;;;15.01;63.18;99774.03;7397784;19;1172;-42
2023/03/09 12:09:23;;;;;;;;;;;;;;;14.99;63.32;99760.00;7398898;19;1043;-41
2023/03/09 12:11:54;;;;;;;;;;;;;;;15.01;63.42;99763.38;7397557;19;1862;-41
2023/03/09 12:14:25;;;;;;;;;;;;;;;15.01;63.15;99752.72;7399626;19;967;-42
2023/03/09 12:16:56;;;;;;;;;;;;;;;15.01;63.53;99763.38;7398661;19;1106;-42
2023/03/09 12:19:28;;;;;;;;;;;;;;;15.02;62.95;99762.44;7398557;19;1043;-42
2023/03/09 12:22:05;;;;;;;;;;;;;;;15.03;63.03;99749.94;7398997;19;983;-42
2023/03/09 12:24:40;;;;;;;;;;;;;;;15.05;63.38;99748.81;7399314;19;1034;-42
2023/03/09 12:27:19;;;;;;;;;;;;;;;15.08;63.17;99743.25;7399203;19;955;-42
2023/03/09 12:29:52;;;;;;;;;;;;;;;15.10;63.40;99741.28;7397960;19;1835;-42
2023/03/09 12:32:36;;;;;;;;;;;;;;;15.15;62.92;99735.53;7398130;19;1047;-42
2023/03/09 12:35:07;;;;;;;;;;;;;;;15.11;63.24;99726.97;7397637;19;1587;-42
2023/03/09 12:37:51;;;;;;;;;;;;;;;15.16;62.87;99728.41;7398080;19;1082;-42
2023/03/09 12:40:32;;;;;;;;;;;;;;;15.18;63.08;99750.41;7397977;19;1031;-42
2023/03/09 12:43:18;;;;;;;;;;;;;;;15.18;62.70;99750.41;7398728;19;1027;-42
2023/03/09 12:45:47;;;;;;;;;;;;;;;15.17;63.01;99730.09;7396988;19;1672;-42
2023/03/09 12:48:24;;;;;;;;;;;;;;;15.15;62.96;99732.06;7397636;19;1268;-42
2023/03/09 12:50:56;;;;;;;;;;;;;;;15.16;62.99;99733.72;7397566;19;1861;-42
2023/03/09 12:53:26;;;;;;;;;;;;;;;15.19;63.00;99733.47;7398031;19;920;-42
2023/03/09 12:56:00;;;;;;;;;;;;;;;15.10;62.98;99732.47;7396768;19;1216;-42
2023/03/09 12:58:43;;;;;;;;;;;;;;;15.10;63.45;99738.63;7397397;19;1055;-42
2023/03/09 13:01:14;;;;;;;;;;;;;;;15.07;62.88;99735.38;7397812;19;987;-42
2023/03/09 13:03:47;;;;;;;;;;;;;;;15.06;63.48;99718.56;7397338;19;1031;-42
2023/03/09 13:06:27;;;;;;;;;;;;;;;15.06;62.98;99729.22;7396347;19;1172;-42
2023/03/09 13:08:56;;;;;;;;;;;;;;;15.11;63.29;99729.66;7397621;19;971;-42
2023/03/09 13:11:36;;;;;;;;;;;;;;;15.09;63.15;99715.63;7396392;19;1855;-42